Terminal Aerodrome Forecast
Issued by NWS Charleston, WV

Home | Current Version | Previous Version | Text Only | Print | Product List | Glossary On
Versions: 1 2 3 4 5 6 7 8 9 10 11 12 13 14 15 16 17 18 19 20 21 22
310
FTUS41 KRLX 300226 AAB
TAFEKN
TAF AMD
KEKN 300226Z 3002/3024 25003KT P6SM SKC
     FM300600 VRB03KT 5SM BR FEW060
     FM300900 VRB03KT 1/2SM FG BKN002
     FM301200 19004KT P6SM SCT060
     FM301500 25007KT P6SM VCSH BKN045
     FM302200 26007KT P6SM SCT050=

USA.gov is the U.S. government's official web portal to all federal, state and local government web resources and services.